sensor_id;sensor_type;location;lat;lon;timestamp;pressure;altitude;pressure_sealevel;temperature;humidity
38054;BME280;23859;50.672;7.164;2023-08-08T00:02:16;35534.47;;;-140.95;74.14
38054;BME280;23859;50.672;7.164;2023-08-08T00:04:42;35554.56;;;-140.95;74.46
38054;BME280;23859;50.672;7.164;2023-08-08T00:07:08;35582.69;;;-140.95;73.99
38054;BME280;23859;50.672;7.164;2023-08-08T00:09:34;35506.34;;;-140.95;74.26
38054;BME280;23859;50.672;7.164;2023-08-08T00:12:00;35502.31;;;-140.95;73.86
38054;BME280;23859;50.672;7.164;2023-08-08T00:14:26;35534.47;;;-140.95;73.37
38054;BME280;23859;50.672;7.164;2023-08-08T00:16:52;35544.50;;;-140.95;73.38
38054;BME280;23859;50.672;7.164;2023-08-08T00:19:18;35538.47;;;-140.95;73.37
38054;BME280;23859;50.672;7.164;2023-08-08T00:21:44;35526.41;;;-140.95;73.52
38054;BME280;23859;50.672;7.164;2023-08-08T00:24:10;35558.56;;;-140.95;73.09
38054;BME280;23859;50.672;7.164;2023-08-08T00:26:36;35534.47;;;-140.95;73.46
38054;BME280;23859;50.672;7.164;2023-08-08T00:29:02;35514.38;;;-140.95;73.08
38054;BME280;23859;50.672;7.164;2023-08-08T00:31:28;35530.44;;;-140.95;73.69
38054;BME280;23859;50.672;7.164;2023-08-08T00:33:54;35510.34;;;-140.95;73.24
38054;BME280;23859;50.672;7.164;2023-08-08T00:36:20;35528.44;;;-140.95;73.41
38054;BME280;23859;50.672;7.164;2023-08-08T00:38:47;35522.41;;;-140.95;73.23
38054;BME280;23859;50.672;7.164;2023-08-08T00:41:14;35496.28;;;-140.95;73.11
38054;BME280;23859;50.672;7.164;2023-08-08T00:43:40;35570.63;;;-140.95;73.04
38054;BME280;23859;50.672;7.164;2023-08-08T00:46:06;35558.56;;;-140.95;73.15
38054;BME280;23859;50.672;7.164;2023-08-08T00:48:33;35530.44;;;-140.95;72.92
38054;BME280;23859;50.672;7.164;2023-08-08T00:51:00;35576.66;;;-140.95;73.46
38054;BME280;23859;50.672;7.164;2023-08-08T00:53:26;35562.59;;;-140.95;72.98
38054;BME280;23859;50.672;7.164;2023-08-08T00:55:54;35578.66;;;-140.95;72.92
38054;BME280;23859;50.672;7.164;2023-08-08T00:58:20;35574.63;;;-140.95;72.58
38054;BME280;23859;50.672;7.164;2023-08-08T01:00:46;35588.69;;;-140.95;73.50
38054;BME280;23859;50.672;7.164;2023-08-08T01:03:12;35590.72;;;-140.95;73.88
38054;BME280;23859;50.672;7.164;2023-08-08T01:05:45;35572.63;;;-140.95;74.72
38054;BME280;23859;50.672;7.164;2023-08-08T01:08:16;35582.69;;;-140.95;75.09
38054;BME280;23859;50.672;7.164;2023-08-08T01:10:45;35554.56;;;-140.95;74.98
38054;BME280;23859;50.672;7.164;2023-08-08T01:13:31;35542.50;;;-140.95;75.59
38054;BME280;23859;50.672;7.164;2023-08-08T01:15:58;35546.50;;;-140.95;74.96
38054;BME280;23859;50.672;7.164;2023-08-08T01:18:25;35530.44;;;-140.95;76.08
38054;BME280;23859;50.672;7.164;2023-08-08T01:20:53;35572.63;;;-140.95;75.54
38054;BME280;23859;50.672;7.164;2023-08-08T01:23:33;35542.50;;;-140.95;75.51
38054;BME280;23859;50.672;7.164;2023-08-08T01:26:00;35592.72;;;-140.95;76.47
38054;BME280;23859;50.672;7.164;2023-08-08T01:28:27;35598.75;;;-140.95;75.79
38054;BME280;23859;50.672;7.164;2023-08-08T01:30:53;35606.78;;;-140.95;76.01
38054;BME280;23859;50.672;7.164;2023-08-08T01:33:20;35600.75;;;-140.95;75.59
38054;BME280;23859;50.672;7.164;2023-08-08T01:35:50;35924.22;;;-140.95;75.59
38054;BME280;23859;50.672;7.164;2023-08-08T01:38:23;35584.69;;;-140.95;75.88
38054;BME280;23859;50.672;7.164;2023-08-08T01:40:50;35576.66;;;-140.95;75.44
38054;BME280;23859;50.672;7.164;2023-08-08T01:43:17;35590.72;;;-140.95;74.91
38054;BME280;23859;50.672;7.164;2023-08-08T01:45:44;35558.56;;;-140.95;75.07
38054;BME280;23859;50.672;7.164;2023-08-08T01:48:11;35574.63;;;-140.95;74.25
38054;BME280;23859;50.672;7.164;2023-08-08T01:50:38;35588.69;;;-140.95;74.52
38054;BME280;23859;50.672;7.164;2023-08-08T01:53:04;35602.75;;;-140.95;75.10
38054;BME280;23859;50.672;7.164;2023-08-08T01:55:31;35632.91;;;-140.95;75.00
38054;BME280;23859;50.672;7.164;2023-08-08T01:57:57;35638.94;;;-140.95;74.32
38054;BME280;23859;50.672;7.164;2023-08-08T02:00:23;35624.88;;;-140.95;75.10
38054;BME280;23859;50.672;7.164;2023-08-08T02:02:49;35598.75;;;-140.95;74.40
38054;BME280;23859;50.672;7.164;2023-08-08T02:05:15;35618.84;;;-140.95;74.59
38054;BME280;23859;50.672;7.164;2023-08-08T02:07:41;35594.72;;;-140.95;74.35
38054;BME280;23859;50.672;7.164;2023-08-08T02:10:07;35630.91;;;-140.95;73.99
38054;BME280;23859;50.672;7.164;2023-08-08T02:12:33;35650.97;;;-140.95;74.33
38054;BME280;23859;50.672;7.164;2023-08-08T02:14:59;35630.91;;;-140.95;74.05
38054;BME280;23859;50.672;7.164;2023-08-08T02:17:26;35659.03;;;-140.95;74.63
38054;BME280;23859;50.672;7.164;2023-08-08T02:19:53;35638.94;;;-140.95;75.36
38054;BME280;23859;50.672;7.164;2023-08-08T02:22:19;35642.94;;;-140.95;75.02
38054;BME280;23859;50.672;7.164;2023-08-08T02:24:45;35630.91;;;-140.95;75.58
38054;BME280;23859;50.672;7.164;2023-08-08T02:27:12;35657.00;;;-140.95;74.91
38054;BME280;23859;50.672;7.164;2023-08-08T02:29:38;35634.91;;;-140.95;74.92
38054;BME280;23859;50.672;7.164;2023-08-08T02:32:05;35626.88;;;-140.95;74.67
38054;BME280;23859;50.672;7.164;2023-08-08T02:34:31;35634.91;;;-140.95;74.60
38054;BME280;23859;50.672;7.164;2023-08-08T02:36:57;35650.97;;;-140.95;74.89
38054;BME280;23859;50.672;7.164;2023-08-08T02:39:23;35683.13;;;-140.95;74.76
38054;BME280;23859;50.672;7.164;2023-08-08T02:41:49;35655.00;;;-140.95;74.84
38054;BME280;23859;50.672;7.164;2023-08-08T02:44:15;35659.03;;;-140.95;75.22
38054;BME280;23859;50.672;7.164;2023-08-08T02:46:41;35610.81;;;-140.95;74.80
38054;BME280;23859;50.672;7.164;2023-08-08T02:49:07;35675.09;;;-140.95;75.00
38054;BME280;23859;50.672;7.164;2023-08-08T02:51:33;35685.13;;;-140.95;75.19
38054;BME280;23859;50.672;7.164;2023-08-08T02:53:59;35675.09;;;-140.95;75.09
38054;BME280;23859;50.672;7.164;2023-08-08T02:56:25;35693.19;;;-140.95;75.89
38054;BME280;23859;50.672;7.164;2023-08-08T02:58:51;36004.59;;;-140.95;75.81
38054;BME280;23859;50.672;7.164;2023-08-08T03:01:17;35996.56;;;-140.95;75.62
38054;BME280;23859;50.672;7.164;2023-08-08T03:03:43;35657.00;;;-140.95;75.81
38054;BME280;23859;50.672;7.164;2023-08-08T03:06:09;35683.13;;;-140.95;76.00
38054;BME280;23859;50.672;7.164;2023-08-08T03:08:35;35663.03;;;-140.95;76.17
38054;BME280;23859;50.672;7.164;2023-08-08T03:11:01;35657.00;;;-140.95;75.89
38054;BME280;23859;50.672;7.164;2023-08-08T03:13:27;35699.19;;;-140.95;76.02
38054;BME280;23859;50.672;7.164;2023-08-08T03:15:53;35679.13;;;-140.95;75.71
38054;BME280;23859;50.672;7.164;2023-08-08T03:18:20;35675.09;;;-140.95;75.53
38054;BME280;23859;50.672;7.164;2023-08-08T03:20:48;35683.13;;;-140.95;75.91
38054;BME280;23859;50.672;7.164;2023-08-08T03:23:14;35713.25;;;-140.95;75.84
38054;BME280;23859;50.672;7.164;2023-08-08T03:25:40;35683.13;;;-140.95;76.31
38054;BME280;23859;50.672;7.164;2023-08-08T03:28:07;35689.16;;;-140.95;76.08
38054;BME280;23859;50.672;7.164;2023-08-08T03:30:33;35669.06;;;-140.95;75.55
38054;BME280;23859;50.672;7.164;2023-08-08T03:32:59;35671.06;;;-140.95;74.95
38054;BME280;23859;50.672;7.164;2023-08-08T03:35:25;35679.13;;;-140.95;75.14
38054;BME280;23859;50.672;7.164;2023-08-08T03:37:51;35691.16;;;-140.95;74.83
38054;BME280;23859;50.672;7.164;2023-08-08T03:40:17;35653.00;;;-140.95;74.54
38054;BME280;23859;50.672;7.164;2023-08-08T03:42:43;35650.97;;;-140.95;74.25
38054;BME280;23859;50.672;7.164;2023-08-08T03:45:09;35689.16;;;-140.95;74.95
38054;BME280;23859;50.672;7.164;2023-08-08T03:47:35;35646.97;;;-140.95;75.06
38054;BME280;23859;50.672;7.164;2023-08-08T03:50:01;35671.06;;;-140.95;74.45
38054;BME280;23859;50.672;7.164;2023-08-08T03:52:27;35681.13;;;-140.95;75.28
38054;BME280;23859;50.672;7.164;2023-08-08T03:54:54;35671.06;;;-140.95;75.56
38054;BME280;23859;50.672;7.164;2023-08-08T03:57:20;35638.94;;;-140.95;74.82
38054;BME280;23859;50.672;7.164;2023-08-08T03:59:46;35683.13;;;-140.95;75.04
38054;BME280;23859;50.672;7.164;2023-08-08T04:02:12;35630.91;;;-140.95;74.97
38054;BME280;23859;50.672;7.164;2023-08-08T04:04:38;35683.13;;;-140.95;75.23
38054;BME280;23859;50.672;7.164;2023-08-08T04:07:04;35655.00;;;-140.95;75.38
38054;BME280;23859;50.672;7.164;2023-08-08T04:09:30;35681.13;;;-140.95;74.80
38054;BME280;23859;50.672;7.164;2023-08-08T04:11:57;35650.97;;;-140.95;74.70
38054;BME280;23859;50.672;7.164;2023-08-08T04:14:23;35648.97;;;-140.95;75.27
38054;BME280;23859;50.672;7.164;2023-08-08T04:16:49;35671.06;;;-140.95;75.13
38054;BME280;23859;50.672;7.164;2023-08-08T04:19:15;35697.19;;;-140.95;74.58
38054;BME280;23859;50.672;7.164;2023-08-08T04:21:41;35655.00;;;-140.95;75.02
38054;BME280;23859;50.672;7.164;2023-08-08T04:24:07;35640.94;;;-140.95;74.42
38054;BME280;23859;50.672;7.164;2023-08-08T04:26:34;35667.06;;;-140.95;74.27
38054;BME280;23859;50.672;7.164;2023-08-08T04:29:00;35667.06;;;-140.95;73.96
38054;BME280;23859;50.672;7.164;2023-08-08T04:31:26;35663.03;;;-140.95;73.96
38054;BME280;23859;50.672;7.164;2023-08-08T04:33:52;35655.00;;;-140.95;74.01
38054;BME280;23859;50.672;7.164;2023-08-08T04:36:24;35683.13;;;-140.95;74.09
38054;BME280;23859;50.672;7.164;2023-08-08T04:38:50;35659.03;;;-140.95;75.05
38054;BME280;23859;50.672;7.164;2023-08-08T04:41:16;35683.13;;;-140.95;74.64
38054;BME280;23859;50.672;7.164;2023-08-08T04:43:42;35646.97;;;-140.95;74.63
38054;BME280;23859;50.672;7.164;2023-08-08T04:46:08;35655.00;;;-140.95;73.88
38054;BME280;23859;50.672;7.164;2023-08-08T04:48:35;35638.94;;;-140.95;74.29
38054;BME280;23859;50.672;7.164;2023-08-08T04:51:04;35687.16;;;-140.95;74.23
38054;BME280;23859;50.672;7.164;2023-08-08T04:53:30;35685.13;;;-140.95;74.05
38054;BME280;23859;50.672;7.164;2023-08-08T04:55:56;35622.84;;;-140.95;74.29
38054;BME280;23859;50.672;7.164;2023-08-08T04:58:22;35646.97;;;-140.95;73.70
38054;BME280;23859;50.672;7.164;2023-08-08T05:00:48;35608.78;;;-140.95;73.61
38054;BME280;23859;50.672;7.164;2023-08-08T05:03:17;35594.72;;;-140.95;73.42
38054;BME280;23859;50.672;7.164;2023-08-08T05:05:43;35608.78;;;-140.95;71.86
38054;BME280;23859;50.672;7.164;2023-08-08T05:08:11;35560.56;;;-140.95;72.44
38054;BME280;23859;50.672;7.164;2023-08-08T05:10:37;35594.72;;;-140.95;71.69
38054;BME280;23859;50.672;7.164;2023-08-08T05:13:03;35544.50;;;-140.95;71.31
38054;BME280;23859;50.672;7.164;2023-08-08T05:15:29;35526.41;;;-140.95;69.57
38054;BME280;23859;50.672;7.164;2023-08-08T05:17:56;35534.47;;;-140.95;69.39
38054;BME280;23859;50.672;7.164;2023-08-08T05:20:22;35530.44;;;-140.95;68.47
38054;BME280;23859;50.672;7.164;2023-08-08T05:22:48;35500.31;;;-140.95;68.45
38054;BME280;23859;50.672;7.164;2023-08-08T05:25:14;35474.19;;;-140.95;67.02
38054;BME280;23859;50.672;7.164;2023-08-08T05:27:41;35486.25;;;-140.95;67.19
38054;BME280;23859;50.672;7.164;2023-08-08T05:30:07;35486.25;;;-140.95;67.44
38054;BME280;23859;50.672;7.164;2023-08-08T05:32:33;35458.13;;;-140.95;66.77
38054;BME280;23859;50.672;7.164;2023-08-08T05:34:59;35450.06;;;-140.95;66.06
38054;BME280;23859;50.672;7.164;2023-08-08T05:37:26;35405.88;;;-140.95;66.89
38054;BME280;23859;50.672;7.164;2023-08-08T05:39:53;35375.75;;;-140.95;65.86
38054;BME280;23859;50.672;7.164;2023-08-08T05:42:19;35421.94;;;-140.95;65.67
38054;BME280;23859;50.672;7.164;2023-08-08T05:44:45;35377.75;;;-140.95;65.58
38054;BME280;23859;50.672;7.164;2023-08-08T05:47:11;35337.56;;;-140.95;65.27
38054;BME280;23859;50.672;7.164;2023-08-08T05:49:39;35353.66;;;-140.95;64.56
38054;BME280;23859;50.672;7.164;2023-08-08T05:52:08;35689.16;;;-140.95;64.56
38054;BME280;23859;50.672;7.164;2023-08-08T05:54:34;35269.28;;;-140.95;64.16
38054;BME280;23859;50.672;7.164;2023-08-08T05:57:01;35309.44;;;-140.95;62.75
38054;BME280;23859;50.672;7.164;2023-08-08T05:59:27;35263.25;;;-140.95;63.01
38054;BME280;23859;50.672;7.164;2023-08-08T06:01:53;35205.00;;;-140.95;63.35
38054;BME280;23859;50.672;7.164;2023-08-08T06:04:20;35245.16;;;-140.95;62.41
38054;BME280;23859;50.672;7.164;2023-08-08T06:06:46;35253.19;;;-140.95;62.88
38054;BME280;23859;50.672;7.164;2023-08-08T06:09:15;35241.16;;;-140.95;62.14
38054;BME280;23859;50.672;7.164;2023-08-08T06:11:41;35233.13;;;-140.95;63.09
38054;BME280;23859;50.672;7.164;2023-08-08T06:14:07;35182.88;;;-140.95;62.43
38054;BME280;23859;50.672;7.164;2023-08-08T06:16:33;35148.75;;;-140.95;61.77
38054;BME280;23859;50.672;7.164;2023-08-08T06:18:59;35184.91;;;-140.95;60.71
38054;BME280;23859;50.672;7.164;2023-08-08T06:21:25;35096.50;;;-140.95;60.45
38054;BME280;23859;50.672;7.164;2023-08-08T06:23:51;35070.41;;;-140.95;60.06
38054;BME280;23859;50.672;7.164;2023-08-08T06:26:20;35028.22;;;-140.95;59.36
38054;BME280;23859;50.672;7.164;2023-08-08T06:28:47;34996.06;;;-140.95;58.68
38054;BME280;23859;50.672;7.164;2023-08-08T06:31:13;34988.03;;;-140.95;58.15
38054;BME280;23859;50.672;7.164;2023-08-08T06:33:39;34982.00;;;-140.95;58.12
38054;BME280;23859;50.672;7.164;2023-08-08T06:36:06;34996.06;;;-140.95;58.40
38054;BME280;23859;50.672;7.164;2023-08-08T06:38:32;34996.06;;;-140.95;58.58
38054;BME280;23859;50.672;7.164;2023-08-08T06:41:00;34975.97;;;-140.95;59.19
38054;BME280;23859;50.672;7.164;2023-08-08T06:43:26;34955.91;;;-140.95;58.70
38054;BME280;23859;50.672;7.164;2023-08-08T06:45:52;34919.75;;;-140.95;58.75
38054;BME280;23859;50.672;7.164;2023-08-08T06:48:18;34907.69;;;-140.95;58.55
38054;BME280;23859;50.672;7.164;2023-08-08T06:50:44;34893.63;;;-140.95;58.45
38054;BME280;23859;50.672;7.164;2023-08-08T06:53:11;34889.59;;;-140.95;58.87
38054;BME280;23859;50.672;7.164;2023-08-08T06:55:37;34951.88;;;-140.95;59.04
38054;BME280;23859;50.672;7.164;2023-08-08T06:58:03;34895.63;;;-140.95;59.14
38054;BME280;23859;50.672;7.164;2023-08-08T07:00:29;34871.53;;;-140.95;58.03
38054;BME280;23859;50.672;7.164;2023-08-08T07:02:55;34881.56;;;-140.95;59.10
38054;BME280;23859;50.672;7.164;2023-08-08T07:05:21;34777.13;;;-140.95;57.46
38054;BME280;23859;50.672;7.164;2023-08-08T07:07:51;34742.97;;;-140.95;56.51
38054;BME280;23859;50.672;7.164;2023-08-08T07:10:18;34775.13;;;-140.95;55.94
38054;BME280;23859;50.672;7.164;2023-08-08T07:12:45;34809.25;;;-140.95;54.46
38054;BME280;23859;50.672;7.164;2023-08-08T07:15:11;34819.31;;;-140.95;55.41
38054;BME280;23859;50.672;7.164;2023-08-08T07:17:37;34843.41;;;-140.95;56.21
38054;BME280;23859;50.672;7.164;2023-08-08T07:20:04;34761.06;;;-140.95;55.56
38054;BME280;23859;50.672;7.164;2023-08-08T07:22:32;34698.78;;;-140.95;56.20
38054;BME280;23859;50.672;7.164;2023-08-08T07:24:59;34680.72;;;-140.95;54.33
38054;BME280;23859;50.672;7.164;2023-08-08T07:27:26;34554.16;;;-140.95;52.74
38054;BME280;23859;50.672;7.164;2023-08-08T07:29:53;34363.38;;;-140.95;49.81
38054;BME280;23859;50.672;7.164;2023-08-08T07:32:19;34098.25;;;-140.95;45.57
38054;BME280;23859;50.672;7.164;2023-08-08T07:34:45;34214.75;;;-140.95;44.54
38054;BME280;23859;50.672;7.164;2023-08-08T07:37:11;34044.03;;;-140.95;43.19
38054;BME280;23859;50.672;7.164;2023-08-08T07:39:37;34337.25;;;-140.95;44.91
38054;BME280;23859;50.672;7.164;2023-08-08T07:42:03;33995.84;;;-140.95;42.48
38054;BME280;23859;50.672;7.164;2023-08-08T07:44:29;33256.88;;;-140.95;37.45
38054;BME280;23859;50.672;7.164;2023-08-08T07:46:57;32690.69;;;-140.95;33.42
38054;BME280;23859;50.672;7.164;2023-08-08T07:49:23;33036.00;;;-140.95;34.60
38054;BME280;23859;50.672;7.164;2023-08-08T07:51:49;32341.38;;;-140.95;32.35
38054;BME280;23859;50.672;7.164;2023-08-08T07:54:15;31889.75;;;-140.95;30.08
38054;BME280;23859;50.672;7.164;2023-08-08T07:56:41;30840.13;;;-140.95;27.36
38054;BME280;23859;50.672;7.164;2023-08-08T07:59:08;31339.81;;;-140.95;25.20
38054;BME280;23859;50.672;7.164;2023-08-08T08:01:35;31843.59;;;-140.95;28.37
38054;BME280;23859;50.672;7.164;2023-08-08T08:04:01;31901.78;;;-140.95;28.29
38054;BME280;23859;50.672;7.164;2023-08-08T08:06:28;32652.53;;;-140.95;31.80
38054;BME280;23859;50.672;7.164;2023-08-08T08:08:54;33080.19;;;-140.95;32.64
38054;BME280;23859;50.672;7.164;2023-08-08T08:11:20;32855.31;;;-140.95;33.25
38054;BME280;23859;50.672;7.164;2023-08-08T08:13:46;32931.59;;;-140.95;34.14
38054;BME280;23859;50.672;7.164;2023-08-08T08:16:13;31227.44;;;-140.95;34.21
38054;BME280;23859;50.672;7.164;2023-08-08T08:18:39;33258.88;;;-140.95;36.45
38054;BME280;23859;50.672;7.164;2023-08-08T08:21:05;33385.38;;;-140.95;36.02
38054;BME280;23859;50.672;7.164;2023-08-08T08:23:31;33469.72;;;-140.95;35.71
38054;BME280;23859;50.672;7.164;2023-08-08T08:25:58;33465.69;;;-140.95;36.73
38054;BME280;23859;50.672;7.164;2023-08-08T08:28:25;33666.50;;;-140.95;37.49
38054;BME280;23859;50.672;7.164;2023-08-08T08:30:51;33672.53;;;-140.95;37.66
38054;BME280;23859;50.672;7.164;2023-08-08T08:33:17;34100.25;;;-140.95;39.39
38054;BME280;23859;50.672;7.164;2023-08-08T08:35:43;33750.84;;;-140.95;37.88
38054;BME280;23859;50.672;7.164;2023-08-08T08:38:09;33837.19;;;-140.95;36.76
38054;BME280;23859;50.672;7.164;2023-08-08T08:40:38;33770.91;;;-140.95;38.77
38054;BME280;23859;50.672;7.164;2023-08-08T08:43:06;33899.44;;;-140.95;38.48
38054;BME280;23859;50.672;7.164;2023-08-08T08:45:37;33762.88;;;-140.95;38.09
38054;BME280;23859;50.672;7.164;2023-08-08T08:48:09;33682.56;;;-140.95;38.96
38054;BME280;23859;50.672;7.164;2023-08-08T08:50:39;33644.41;;;-140.95;39.19
38054;BME280;23859;50.672;7.164;2023-08-08T08:53:05;33678.53;;;-140.95;39.17
38054;BME280;23859;50.672;7.164;2023-08-08T08:55:33;33618.31;;;-140.95;38.14
38054;BME280;23859;50.672;7.164;2023-08-08T08:57:59;33654.44;;;-140.95;37.57
38054;BME280;23859;50.672;7.164;2023-08-08T09:00:25;33688.59;;;-140.95;38.11
38054;BME280;23859;50.672;7.164;2023-08-08T09:02:52;33694.59;;;-140.95;38.27
38054;BME280;23859;50.672;7.164;2023-08-08T09:05:21;33891.41;;;-140.95;36.97
38054;BME280;23859;50.672;7.164;2023-08-08T09:07:48;33953.66;;;-140.95;38.23
38054;BME280;23859;50.672;7.164;2023-08-08T09:10:15;33875.34;;;-140.95;37.35
38054;BME280;23859;50.672;7.164;2023-08-08T09:12:42;34003.88;;;-140.95;37.18
38054;BME280;23859;50.672;7.164;2023-08-08T09:15:09;34080.19;;;-140.95;37.53
38054;BME280;23859;50.672;7.164;2023-08-08T09:17:40;33961.69;;;-140.95;39.24
38054;BME280;23859;50.672;7.164;2023-08-08T09:20:06;33847.22;;;-140.95;37.31
38054;BME280;23859;50.672;7.164;2023-08-08T09:22:33;33879.34;;;-140.95;38.46
38054;BME280;23859;50.672;7.164;2023-08-08T09:24:59;33750.84;;;-140.95;37.69
38054;BME280;23859;50.672;7.164;2023-08-08T09:27:25;33594.22;;;-140.95;36.33
38054;BME280;23859;50.672;7.164;2023-08-08T09:29:54;33762.88;;;-140.95;35.67
38054;BME280;23859;50.672;7.164;2023-08-08T09:32:20;33754.84;;;-140.95;37.43
38054;BME280;23859;50.672;7.164;2023-08-08T09:34:46;33851.25;;;-140.95;37.53
38054;BME280;23859;50.672;7.164;2023-08-08T09:37:13;33963.69;;;-140.95;36.55
38054;BME280;23859;50.672;7.164;2023-08-08T09:39:40;33999.84;;;-140.95;37.63
38054;BME280;23859;50.672;7.164;2023-08-08T09:42:08;34062.09;;;-140.95;38.42
38054;BME280;23859;50.672;7.164;2023-08-08T09:44:34;33977.75;;;-140.95;38.55
38054;BME280;23859;50.672;7.164;2023-08-08T09:47:01;33786.97;;;-140.95;36.73
38054;BME280;23859;50.672;7.164;2023-08-08T09:49:27;33883.38;;;-140.95;37.31
38054;BME280;23859;50.672;7.164;2023-08-08T09:51:54;33963.69;;;-140.95;38.62
38054;BME280;23859;50.672;7.164;2023-08-08T09:54:21;33875.34;;;-140.95;37.23
38054;BME280;23859;50.672;7.164;2023-08-08T09:56:49;33971.75;;;-140.95;38.48
38054;BME280;23859;50.672;7.164;2023-08-08T09:59:17;33863.28;;;-140.95;37.76
38054;BME280;23859;50.672;7.164;2023-08-08T10:01:45;33772.94;;;-140.95;36.25
38054;BME280;23859;50.672;7.164;2023-08-08T10:04:13;33712.69;;;-140.95;37.71
38054;BME280;23859;50.672;7.164;2023-08-08T10:06:39;33760.88;;;-140.95;36.88
38054;BME280;23859;50.672;7.164;2023-08-08T10:09:05;33688.59;;;-140.95;36.33
38054;BME280;23859;50.672;7.164;2023-08-08T10:11:32;33784.97;;;-140.95;36.15
38054;BME280;23859;50.672;7.164;2023-08-08T10:14:02;33875.34;;;-140.95;36.33
38054;BME280;23859;50.672;7.164;2023-08-08T10:16:31;33710.69;;;-140.95;37.53
38054;BME280;23859;50.672;7.164;2023-08-08T10:19:02;33905.47;;;-140.95;36.82
38054;BME280;23859;50.672;7.164;2023-08-08T10:21:36;33853.25;;;-140.95;37.64
38054;BME280;23859;50.672;7.164;2023-08-08T10:24:07;33981.78;;;-140.95;38.47
38054;BME280;23859;50.672;7.164;2023-08-08T10:26:34;33859.28;;;-140.95;37.34
38054;BME280;23859;50.672;7.164;2023-08-08T10:29:01;33931.56;;;-140.95;38.40
38054;BME280;23859;50.672;7.164;2023-08-08T10:31:34;34007.88;;;-140.95;38.91
38054;BME280;23859;50.672;7.164;2023-08-08T10:34:01;33925.53;;;-140.95;38.82
38054;BME280;23859;50.672;7.164;2023-08-08T10:36:49;33901.44;;;-140.95;37.18
38054;BME280;23859;50.672;7.164;2023-08-08T10:39:17;33823.13;;;-140.95;36.52
38054;BME280;23859;50.672;7.164;2023-08-08T10:41:48;33853.25;;;-140.95;37.51
38054;BME280;23859;50.672;7.164;2023-08-08T10:44:24;33883.38;;;-140.95;36.89
38054;BME280;23859;50.672;7.164;2023-08-08T10:46:52;34009.91;;;-140.95;36.25
38054;BME280;23859;50.672;7.164;2023-08-08T10:49:19;33953.66;;;-140.95;37.62
38054;BME280;23859;50.672;7.164;2023-08-08T10:51:47;33863.28;;;-140.95;37.49
38054;BME280;23859;50.672;7.164;2023-08-08T10:54:15;33819.13;;;-140.95;37.97
38054;BME280;23859;50.672;7.164;2023-08-08T10:56:48;33839.19;;;-140.95;37.53
38054;BME280;23859;50.672;7.164;2023-08-08T10:59:16;33847.22;;;-140.95;38.22
38054;BME280;23859;50.672;7.164;2023-08-08T11:01:46;33766.91;;;-140.95;37.39
38054;BME280;23859;50.672;7.164;2023-08-08T11:04:13;33690.59;;;-140.95;37.12
38054;BME280;23859;50.672;7.164;2023-08-08T11:06:40;33582.16;;;-140.95;38.87
38054;BME280;23859;50.672;7.164;2023-08-08T11:09:07;33544.00;;;-140.95;36.78
38054;BME280;23859;50.672;7.164;2023-08-08T11:11:37;33554.03;;;-140.95;35.70
38054;BME280;23859;50.672;7.164;2023-08-08T11:14:15;33441.59;;;-140.95;35.98
38054;BME280;23859;50.672;7.164;2023-08-08T11:16:43;33558.06;;;-140.95;36.71
38054;BME280;23859;50.672;7.164;2023-08-08T11:19:09;33652.44;;;-140.95;37.61
38054;BME280;23859;50.672;7.164;2023-08-08T11:21:39;33572.13;;;-140.95;37.59
38054;BME280;23859;50.672;7.164;2023-08-08T11:24:06;33789.00;;;-140.95;38.38
38054;BME280;23859;50.672;7.164;2023-08-08T11:26:35;33959.69;;;-140.95;39.30
38054;BME280;23859;50.672;7.164;2023-08-08T11:29:03;33827.16;;;-140.95;38.36
38054;BME280;23859;50.672;7.164;2023-08-08T11:31:30;33909.47;;;-140.95;39.54
38054;BME280;23859;50.672;7.164;2023-08-08T11:33:57;33975.75;;;-140.95;38.32
38054;BME280;23859;50.672;7.164;2023-08-08T11:36:31;33931.56;;;-140.95;38.54
38054;BME280;23859;50.672;7.164;2023-08-08T11:38:59;34254.91;;;-140.95;39.26
38054;BME280;23859;50.672;7.164;2023-08-08T11:41:26;34025.97;;;-140.95;38.83
38054;BME280;23859;50.672;7.164;2023-08-08T11:43:53;34054.06;;;-140.95;39.00
38054;BME280;23859;50.672;7.164;2023-08-08T11:46:22;33995.84;;;-140.95;40.48
38054;BME280;23859;50.672;7.164;2023-08-08T11:48:49;33905.47;;;-140.95;40.34
38054;BME280;23859;50.672;7.164;2023-08-08T11:51:16;33768.91;;;-140.95;39.78
38054;BME280;23859;50.672;7.164;2023-08-08T11:53:51;33758.88;;;-140.95;38.38
38054;BME280;23859;50.672;7.164;2023-08-08T11:56:21;33851.25;;;-140.95;39.29
38054;BME280;23859;50.672;7.164;2023-08-08T11:58:50;34001.84;;;-140.95;40.41
38054;BME280;23859;50.672;7.164;2023-08-08T12:01:21;34084.19;;;-140.95;41.93
38054;BME280;23859;50.672;7.164;2023-08-08T12:03:47;34148.47;;;-140.95;42.04
38054;BME280;23859;50.672;7.164;2023-08-08T12:06:17;34200.69;;;-140.95;42.02
38054;BME280;23859;50.672;7.164;2023-08-08T12:08:44;34303.09;;;-140.95;42.21
38054;BME280;23859;50.672;7.164;2023-08-08T12:11:12;34325.19;;;-140.95;42.68
38054;BME280;23859;50.672;7.164;2023-08-08T12:13:43;34293.06;;;-140.95;42.46
38054;BME280;23859;50.672;7.164;2023-08-08T12:16:11;34275.00;;;-140.95;43.25
38054;BME280;23859;50.672;7.164;2023-08-08T12:18:38;34208.72;;;-140.95;43.01
38054;BME280;23859;50.672;7.164;2023-08-08T12:21:05;34128.38;;;-140.95;42.53
38054;BME280;23859;50.672;7.164;2023-08-08T12:23:32;34027.97;;;-140.95;42.54
38054;BME280;23859;50.672;7.164;2023-08-08T12:25:59;34003.88;;;-140.95;42.34
38054;BME280;23859;50.672;7.164;2023-08-08T12:28:26;34218.75;;;-140.95;40.76
38054;BME280;23859;50.672;7.164;2023-08-08T12:30:52;34168.56;;;-140.95;41.16
38054;BME280;23859;50.672;7.164;2023-08-08T12:33:18;34027.97;;;-140.95;39.75
38054;BME280;23859;50.672;7.164;2023-08-08T12:35:44;33909.47;;;-140.95;39.56
38054;BME280;23859;50.672;7.164;2023-08-08T12:38:11;33935.59;;;-140.95;40.63
38054;BME280;23859;50.672;7.164;2023-08-08T12:40:37;33829.16;;;-140.95;38.56